createdAt,value
2023-11-30T00:01:25.977Z,86.73
2023-11-30T00:03:54.672Z,86.44
2023-11-30T00:06:22.835Z,86.51
2023-11-30T00:08:51.120Z,86.50
2023-11-30T00:11:19.287Z,86.53
2023-11-30T00:13:47.373Z,86.65
2023-11-30T00:16:15.355Z,86.76
2023-11-30T00:18:43.431Z,86.54
2023-11-30T00:21:11.638Z,86.60
2023-11-30T00:23:39.633Z,86.66
2023-11-30T00:26:07.669Z,86.65
2023-11-30T00:28:37.623Z,86.71
2023-11-30T00:31:06.567Z,86.71
2023-11-30T00:33:35.100Z,86.85
2023-11-30T00:36:03.632Z,86.66
2023-11-30T00:38:32.480Z,86.69
2023-11-30T00:41:00.495Z,86.75
2023-11-30T00:43:28.479Z,86.67
2023-11-30T00:46:03.440Z,86.63
2023-11-30T00:48:38.353Z,86.64
2023-11-30T00:51:12.157Z,86.69
2023-11-30T00:53:40.278Z,86.68
2023-11-30T00:56:10.466Z,86.86
2023-11-30T00:58:38.465Z,86.75
2023-11-30T01:01:06.551Z,86.82
2023-11-30T01:03:34.598Z,86.83
2023-11-30T01:06:02.875Z,86.73
2023-11-30T01:08:30.858Z,86.69
2023-11-30T01:10:58.974Z,86.58
2023-11-30T01:13:26.963Z,86.45
2023-11-30T01:15:55.410Z,86.57
2023-11-30T01:18:23.508Z,86.67
2023-11-30T01:20:51.683Z,86.76
2023-11-30T01:23:19.690Z,86.61
2023-11-30T01:25:47.736Z,86.67
2023-11-30T01:28:15.830Z,86.58
2023-11-30T01:30:43.875Z,86.60
2023-11-30T01:33:12.355Z,86.65
2023-11-30T01:35:40.463Z,86.66
2023-11-30T01:38:08.462Z,86.71
2023-11-30T01:40:36.463Z,86.68
2023-11-30T01:43:07.247Z,86.74
2023-11-30T01:45:35.290Z,86.91
2023-11-30T01:48:03.581Z,86.79
2023-11-30T01:50:31.817Z,86.65
2023-11-30T01:52:59.792Z,86.51
2023-11-30T01:55:27.803Z,86.73
2023-11-30T01:57:55.784Z,86.84
2023-11-30T02:00:23.981Z,86.68
2023-11-30T02:02:52.093Z,86.73
2023-11-30T02:05:20.854Z,86.72
2023-11-30T02:07:48.939Z,86.62
2023-11-30T02:10:18.485Z,86.85
2023-11-30T02:12:46.761Z,86.83
2023-11-30T02:15:15.046Z,86.88
2023-11-30T02:17:46.341Z,86.93
2023-11-30T02:20:14.865Z,86.93
2023-11-30T02:22:43.176Z,86.99
2023-11-30T02:25:11.249Z,86.82
2023-11-30T02:27:39.393Z,86.87
2023-11-30T02:30:09.979Z,86.90
2023-11-30T02:32:38.217Z,86.91
2023-11-30T02:35:06.811Z,86.88
2023-11-30T02:37:34.978Z,86.97
2023-11-30T02:40:03.955Z,87.01
2023-11-30T02:42:32.144Z,87.01
2023-11-30T02:45:00.279Z,87.14
2023-11-30T02:47:28.454Z,87.00
2023-11-30T02:49:56.527Z,87.03
2023-11-30T02:52:24.633Z,86.94
2023-11-30T02:54:52.781Z,86.87
2023-11-30T02:57:20.979Z,87.16
2023-11-30T02:59:49.314Z,87.10
2023-11-30T03:02:17.505Z,87.07
2023-11-30T03:04:46.497Z,87.22
2023-11-30T03:07:14.877Z,87.22
2023-11-30T03:09:43.059Z,87.19
2023-11-30T03:12:11.269Z,87.17
2023-11-30T03:14:39.428Z,87.23
2023-11-30T03:17:07.604Z,87.21
2023-11-30T03:19:35.757Z,87.19
2023-11-30T03:22:04.077Z,87.26
2023-11-30T03:24:32.206Z,87.40
2023-11-30T03:27:00.438Z,87.29
2023-11-30T03:29:28.608Z,87.33
2023-11-30T03:31:56.929Z,87.42
2023-11-30T03:34:25.121Z,87.48
2023-11-30T03:36:53.408Z,87.55
2023-11-30T03:39:21.577Z,87.40
2023-11-30T03:41:49.754Z,87.45
2023-11-30T03:44:17.826Z,87.59
2023-11-30T03:46:45.903Z,87.53
2023-11-30T03:49:14.055Z,87.64
2023-11-30T03:51:42.410Z,87.75
2023-11-30T03:54:10.741Z,87.84
2023-11-30T03:56:38.899Z,87.83
2023-11-30T03:59:06.973Z,87.83
2023-11-30T04:01:35.195Z,88.05
2023-11-30T04:04:03.560Z,88.15
2023-11-30T04:06:31.745Z,88.10
2023-11-30T04:09:00.672Z,88.13
2023-11-30T04:11:28.754Z,88.18
2023-11-30T04:14:07.354Z,88.22
2023-11-30T04:16:36.514Z,88.19
2023-11-30T04:19:04.521Z,88.34
2023-11-30T04:21:32.624Z,88.39
2023-11-30T04:24:00.664Z,88.42
2023-11-30T04:26:28.682Z,88.41
2023-11-30T04:28:56.691Z,88.33
2023-11-30T04:31:24.809Z,88.50
2023-11-30T04:33:52.899Z,88.52
2023-11-30T04:36:20.984Z,88.54
2023-11-30T04:38:49.070Z,88.47
2023-11-30T04:41:17.101Z,88.52
2023-11-30T04:43:45.091Z,88.67
2023-11-30T04:46:13.727Z,88.68
2023-11-30T04:48:42.554Z,88.65
2023-11-30T04:51:10.745Z,88.61
2023-11-30T04:53:39.009Z,88.88
2023-11-30T04:56:07.404Z,88.72
2023-11-30T04:58:35.580Z,88.67
2023-11-30T05:01:03.865Z,88.79
2023-11-30T05:03:32.171Z,88.76
2023-11-30T05:06:00.530Z,88.82
2023-11-30T05:08:28.584Z,88.76
2023-11-30T05:10:56.575Z,88.56
2023-11-30T05:13:24.533Z,88.65
2023-11-30T05:15:52.517Z,88.79
2023-11-30T05:18:20.899Z,88.65
2023-11-30T05:20:49.261Z,88.76
2023-11-30T05:23:17.862Z,88.82
2023-11-30T05:25:45.992Z,88.78
2023-11-30T05:28:13.962Z,88.89
2023-11-30T05:30:42.237Z,88.99
2023-11-30T05:33:10.836Z,88.85
2023-11-30T05:35:39.843Z,88.91
2023-11-30T05:38:07.883Z,88.84
2023-11-30T05:40:36.344Z,88.75
2023-11-30T05:43:04.369Z,88.82
2023-11-30T05:45:32.426Z,88.77
2023-11-30T05:48:00.541Z,88.72
2023-11-30T05:50:29.521Z,88.80
2023-11-30T05:52:57.508Z,88.88
2023-11-30T05:55:25.517Z,88.80
2023-11-30T05:57:53.538Z,88.90
2023-11-30T06:00:23.238Z,88.87
2023-11-30T06:02:51.843Z,88.99
2023-11-30T06:05:19.947Z,89.08
2023-11-30T06:07:48.288Z,89.11
2023-11-30T06:10:16.479Z,89.15
2023-11-30T06:12:44.481Z,89.23
2023-11-30T06:15:12.729Z,89.01
2023-11-30T06:17:40.813Z,89.14
2023-11-30T06:20:11.809Z,89.20
2023-11-30T06:22:40.809Z,89.29
2023-11-30T06:25:10.210Z,89.15
2023-11-30T06:27:38.567Z,89.16
2023-11-30T06:30:08.589Z,89.11
2023-11-30T06:32:36.668Z,89.10
2023-11-30T06:35:05.589Z,89.03
2023-11-30T06:37:33.673Z,89.27
2023-11-30T06:40:01.759Z,89.18
2023-11-30T06:42:30.143Z,89.10
2023-11-30T06:44:58.459Z,88.98
2023-11-30T06:47:26.598Z,89.14
2023-11-30T06:49:54.758Z,89.16
2023-11-30T06:52:23.029Z,89.24
2023-11-30T06:54:51.418Z,89.28
2023-11-30T06:57:19.558Z,89.51
2023-11-30T06:59:47.494Z,89.57
2023-11-30T07:02:15.518Z,89.55
2023-11-30T07:04:43.709Z,89.75
2023-11-30T07:07:20.335Z,89.82
2023-11-30T07:09:56.258Z,89.74
2023-11-30T07:12:24.717Z,89.87
2023-11-30T07:14:53.861Z,89.83
2023-11-30T07:17:25.337Z,89.74
2023-11-30T07:19:54.296Z,89.68
2023-11-30T07:22:26.182Z,90.00
2023-11-30T07:24:54.391Z,89.93
2023-11-30T07:27:22.435Z,90.07
2023-11-30T07:29:50.613Z,90.17
2023-11-30T07:32:18.670Z,90.22
2023-11-30T07:34:47.052Z,90.10
2023-11-30T07:37:16.772Z,89.91
2023-11-30T07:39:45.499Z,90.03
2023-11-30T07:42:26.080Z,89.96
2023-11-30T07:45:03.096Z,90.06
2023-11-30T07:47:31.966Z,89.99
2023-11-30T07:50:00.544Z,89.85
2023-11-30T07:52:28.738Z,89.83
2023-11-30T07:54:56.794Z,89.87
2023-11-30T07:57:25.113Z,89.96
2023-11-30T07:59:53.170Z,89.97
2023-11-30T08:02:21.251Z,89.97
2023-11-30T08:04:49.298Z,89.79
2023-11-30T08:07:17.410Z,89.85
2023-11-30T08:09:45.453Z,89.75
2023-11-30T08:12:13.502Z,89.72
2023-11-30T08:14:41.564Z,89.46
2023-11-30T08:17:09.534Z,89.45
2023-11-30T08:19:37.570Z,89.70
2023-11-30T08:22:07.699Z,89.81
2023-11-30T08:24:35.932Z,89.88
2023-11-30T08:27:04.312Z,89.76
2023-11-30T08:29:32.426Z,89.78
2023-11-30T08:32:00.714Z,89.72
2023-11-30T08:34:28.980Z,89.87
2023-11-30T08:36:57.585Z,89.93
2023-11-30T08:39:25.770Z,89.88
2023-11-30T08:41:54.850Z,89.85
2023-11-30T08:44:26.034Z,90.21
2023-11-30T08:46:54.472Z,90.07
2023-11-30T08:49:23.622Z,89.93
2023-11-30T08:51:53.365Z,89.91
2023-11-30T08:54:22.637Z,89.92
2023-11-30T08:56:50.826Z,89.72
2023-11-30T08:59:20.098Z,89.83
2023-11-30T09:01:49.946Z,89.94
2023-11-30T09:04:18.435Z,90.18
2023-11-30T09:06:46.649Z,90.64
2023-11-30T09:09:14.718Z,89.94
2023-11-30T09:11:46.208Z,89.66
2023-11-30T09:14:14.291Z,89.28
2023-11-30T09:16:42.486Z,89.58
2023-11-30T09:19:10.473Z,89.29
2023-11-30T09:21:38.673Z,89.26
2023-11-30T09:24:07.286Z,89.61
2023-11-30T09:26:35.377Z,89.43
2023-11-30T09:29:04.409Z,89.38
2023-11-30T09:31:33.165Z,89.50
2023-11-30T09:34:01.962Z,89.15
2023-11-30T09:36:30.509Z,88.86
2023-11-30T09:38:58.760Z,88.67
2023-11-30T09:41:27.082Z,88.70
2023-11-30T09:43:57.030Z,88.72
2023-11-30T09:46:25.935Z,88.88
2023-11-30T09:48:53.958Z,88.53
2023-11-30T09:51:22.828Z,88.71
2023-11-30T09:53:51.042Z,88.93
2023-11-30T09:56:19.200Z,88.83
2023-11-30T09:58:47.313Z,88.89
2023-11-30T10:01:15.443Z,88.55
2023-11-30T10:03:43.819Z,88.67
2023-11-30T10:06:12.237Z,88.72
2023-11-30T10:08:40.708Z,88.73
2023-11-30T10:11:09.310Z,88.91
2023-11-30T10:13:37.449Z,88.26
2023-11-30T10:16:08.710Z,88.40
2023-11-30T10:18:36.960Z,88.31
2023-11-30T10:21:05.184Z,88.54
2023-11-30T10:23:34.485Z,88.34
2023-11-30T10:26:03.288Z,88.09
2023-11-30T10:28:31.565Z,87.79
2023-11-30T10:31:00.586Z,87.38
2023-11-30T10:33:28.780Z,87.48
2023-11-30T10:36:02.145Z,87.21
2023-11-30T10:38:32.681Z,87.37
2023-11-30T10:41:11.385Z,87.03
2023-11-30T10:43:39.474Z,86.75
2023-11-30T10:46:08.748Z,86.90
2023-11-30T10:48:38.089Z,86.63
2023-11-30T10:51:06.702Z,86.67
2023-11-30T10:53:46.216Z,87.01
2023-11-30T10:56:14.631Z,87.09
2023-11-30T10:58:45.906Z,87.12
2023-11-30T11:01:15.095Z,86.95
2023-11-30T11:03:49.617Z,86.97
2023-11-30T11:06:17.784Z,87.06
2023-11-30T11:09:02.395Z,87.28
2023-11-30T11:11:30.915Z,87.09
2023-11-30T11:13:59.102Z,87.05
2023-11-30T11:16:38.406Z,86.70
2023-11-30T11:19:06.595Z,86.73
2023-11-30T11:21:38.877Z,86.86
2023-11-30T11:24:08.380Z,87.01
2023-11-30T11:26:42.516Z,86.90
2023-11-30T11:29:10.601Z,86.71
2023-11-30T11:31:38.686Z,86.72
2023-11-30T11:34:07.679Z,86.64
2023-11-30T11:36:39.291Z,86.72
2023-11-30T11:39:07.726Z,86.98
2023-11-30T11:41:35.711Z,87.04
2023-11-30T11:44:04.532Z,87.04
2023-11-30T11:46:32.597Z,87.10
2023-11-30T11:49:00.619Z,87.08
2023-11-30T11:51:29.385Z,87.20
2023-11-30T11:53:57.879Z,87.13
2023-11-30T11:56:25.953Z,86.96
2023-11-30T11:58:53.906Z,87.01
2023-11-30T12:01:23.011Z,87.00
2023-11-30T12:03:52.220Z,87.09
2023-11-30T12:06:30.137Z,87.15
2023-11-30T12:09:10.643Z,86.83
2023-11-30T12:11:40.808Z,86.80
2023-11-30T12:14:10.940Z,86.85
2023-11-30T12:16:39.011Z,86.84
2023-11-30T12:19:06.993Z,86.74
2023-11-30T12:21:36.845Z,86.85
2023-11-30T12:24:05.087Z,86.65
2023-11-30T12:26:33.085Z,86.57
2023-11-30T12:29:01.128Z,86.56
2023-11-30T12:31:29.226Z,86.57
2023-11-30T12:33:57.351Z,86.66
2023-11-30T12:36:25.664Z,86.67
2023-11-30T12:38:54.026Z,86.60
2023-11-30T12:41:22.105Z,86.56
2023-11-30T12:43:50.389Z,86.30
2023-11-30T12:46:18.619Z,85.98
2023-11-30T12:48:47.334Z,86.03
2023-11-30T12:51:16.409Z,85.94
2023-11-30T12:53:44.895Z,85.70
2023-11-30T12:56:13.671Z,85.55
2023-11-30T12:58:41.688Z,85.50
2023-11-30T13:01:09.768Z,85.51
2023-11-30T13:03:38.081Z,85.50
2023-11-30T13:06:06.619Z,85.38
2023-11-30T13:08:34.747Z,85.13
2023-11-30T13:11:03.097Z,85.04
2023-11-30T13:13:41.801Z,85.33
2023-11-30T13:16:11.044Z,85.14
2023-11-30T13:18:40.142Z,85.17
2023-11-30T13:21:08.510Z,85.04
2023-11-30T13:23:36.523Z,85.23
2023-11-30T13:26:04.614Z,85.11
2023-11-30T13:28:37.696Z,85.24
2023-11-30T13:31:10.021Z,85.28
2023-11-30T13:33:38.249Z,85.15
2023-11-30T13:36:07.199Z,85.13
2023-11-30T13:38:35.872Z,85.21
2023-11-30T13:41:04.941Z,85.17
2023-11-30T13:43:32.939Z,85.29
2023-11-30T13:46:01.003Z,85.19
2023-11-30T13:48:29.490Z,85.15
2023-11-30T13:51:00.871Z,85.25
2023-11-30T13:53:31.420Z,85.24
2023-11-30T13:55:59.630Z,85.22
2023-11-30T13:58:28.112Z,85.16
2023-11-30T14:00:56.271Z,85.20
2023-11-30T14:03:24.350Z,85.22
2023-11-30T14:05:53.786Z,85.33
2023-11-30T14:08:22.281Z,85.42
2023-11-30T14:10:50.274Z,85.29
2023-11-30T14:13:18.271Z,85.33
2023-11-30T14:15:46.475Z,85.26
2023-11-30T14:18:14.622Z,85.47
2023-11-30T14:20:42.795Z,85.30
2023-11-30T14:23:10.960Z,85.39
2023-11-30T14:25:39.001Z,85.46
2023-11-30T14:28:12.207Z,85.34
2023-11-30T14:30:41.945Z,85.37
2023-11-30T14:33:12.578Z,85.36
2023-11-30T14:35:42.280Z,85.30
2023-11-30T14:38:10.716Z,85.23
2023-11-30T14:40:38.850Z,85.23
2023-11-30T14:43:07.408Z,85.24
2023-11-30T14:45:35.511Z,85.19
2023-11-30T14:48:07.427Z,85.29
2023-11-30T14:50:36.600Z,85.08
2023-11-30T14:53:06.070Z,85.20
2023-11-30T14:55:34.380Z,85.19
2023-11-30T14:58:02.397Z,85.32
2023-11-30T15:00:31.134Z,85.53
2023-11-30T15:03:03.283Z,85.40
2023-11-30T15:05:31.622Z,85.45
2023-11-30T15:07:59.729Z,85.59
2023-11-30T15:10:28.299Z,85.64
2023-11-30T15:12:56.398Z,85.42
2023-11-30T15:15:25.470Z,85.61
2023-11-30T15:17:53.682Z,85.57
2023-11-30T15:20:23.309Z,85.40
2023-11-30T15:22:51.570Z,85.57
2023-11-30T15:25:20.261Z,85.44
2023-11-30T15:27:49.670Z,85.63
2023-11-30T15:30:18.635Z,85.63
2023-11-30T15:32:46.845Z,85.64
2023-11-30T15:35:15.195Z,85.35
2023-11-30T15:37:49.387Z,85.36
2023-11-30T15:40:18.579Z,85.29
2023-11-30T15:42:46.845Z,85.67
2023-11-30T15:45:18.414Z,85.91
2023-11-30T15:47:47.046Z,86.03
2023-11-30T15:50:15.292Z,86.01
2023-11-30T15:52:43.701Z,86.18
2023-11-30T15:55:12.878Z,86.35
2023-11-30T15:57:41.683Z,86.44
2023-11-30T16:00:10.276Z,86.70
2023-11-30T16:02:43.191Z,86.65
2023-11-30T16:05:11.422Z,86.56
2023-11-30T16:07:39.387Z,86.30
2023-11-30T16:10:08.088Z,86.43
2023-11-30T16:12:36.148Z,86.43
2023-11-30T16:15:05.739Z,86.30
2023-11-30T16:17:33.838Z,86.82
2023-11-30T16:20:06.429Z,86.53
2023-11-30T16:22:34.535Z,86.39
2023-11-30T16:25:02.707Z,86.43
2023-11-30T16:27:30.921Z,86.63
2023-11-30T16:29:59.020Z,86.68
2023-11-30T16:32:27.124Z,86.95
2023-11-30T16:34:55.201Z,87.01
2023-11-30T16:37:23.539Z,87.09
2023-11-30T16:39:51.688Z,87.09
2023-11-30T16:42:19.935Z,87.28
2023-11-30T16:44:48.156Z,87.52
2023-11-30T16:47:16.478Z,87.67
2023-11-30T16:49:45.075Z,87.70
2023-11-30T16:52:13.242Z,87.58
2023-11-30T16:54:41.474Z,87.58
2023-11-30T16:57:09.511Z,87.59
2023-11-30T16:59:37.790Z,87.73
2023-11-30T17:02:06.158Z,87.95
2023-11-30T17:04:34.664Z,88.05
2023-11-30T17:07:03.091Z,88.14
2023-11-30T17:09:31.448Z,88.54
2023-11-30T17:11:59.466Z,88.53
2023-11-30T17:14:27.595Z,88.29
2023-11-30T17:16:56.112Z,88.23
2023-11-30T17:19:24.262Z,88.30
2023-11-30T17:21:53.675Z,88.38
2023-11-30T17:24:22.358Z,88.36
2023-11-30T17:26:53.708Z,88.37
2023-11-30T17:29:21.896Z,88.47
2023-11-30T17:31:49.975Z,88.56
2023-11-30T17:34:18.247Z,88.65
2023-11-30T17:36:46.908Z,88.49
2023-11-30T17:39:18.228Z,88.45
2023-11-30T17:41:46.409Z,88.56
2023-11-30T17:44:14.735Z,88.43
2023-11-30T17:46:46.335Z,88.42
2023-11-30T17:49:16.340Z,88.42
2023-11-30T17:51:44.558Z,88.72
2023-11-30T17:54:12.553Z,88.62
2023-11-30T17:56:40.659Z,88.55
2023-11-30T17:59:08.678Z,88.48
2023-11-30T18:01:36.794Z,88.44
2023-11-30T18:04:05.413Z,88.30
2023-11-30T18:06:33.747Z,87.97
2023-11-30T18:09:01.931Z,88.36
2023-11-30T18:11:29.960Z,88.13
2023-11-30T18:13:58.054Z,88.16
2023-11-30T18:16:26.187Z,88.16
2023-11-30T18:18:54.753Z,88.04
2023-11-30T18:21:22.966Z,87.67
2023-11-30T18:23:50.951Z,87.54
2023-11-30T18:26:21.082Z,87.60
2023-11-30T18:28:50.172Z,87.68
2023-11-30T18:31:22.490Z,87.67
2023-11-30T18:33:51.407Z,87.80
2023-11-30T18:36:19.652Z,87.79
2023-11-30T18:38:51.203Z,87.87
2023-11-30T18:41:20.872Z,87.86
2023-11-30T18:43:49.654Z,87.96
2023-11-30T18:46:18.957Z,87.86
2023-11-30T18:48:47.157Z,87.60
2023-11-30T18:51:15.205Z,87.61
2023-11-30T18:53:43.258Z,87.74
2023-11-30T18:56:11.507Z,87.91
2023-11-30T18:58:41.520Z,87.95
2023-11-30T19:01:11.654Z,87.98
2023-11-30T19:03:40.109Z,88.05
2023-11-30T19:06:08.916Z,88.01
2023-11-30T19:08:37.097Z,87.71
2023-11-30T19:11:05.650Z,87.85
2023-11-30T19:13:34.125Z,87.78
2023-11-30T19:16:02.480Z,87.76
2023-11-30T19:18:33.146Z,87.82
2023-11-30T19:21:01.560Z,88.02
2023-11-30T19:23:29.741Z,87.89
2023-11-30T19:25:59.065Z,88.11
2023-11-30T19:28:27.337Z,88.07
2023-11-30T19:30:55.531Z,87.97
2023-11-30T19:33:23.784Z,87.81
2023-11-30T19:35:51.952Z,87.75
2023-11-30T19:38:20.055Z,87.59
2023-11-30T19:40:48.342Z,87.64
2023-11-30T19:43:17.608Z,87.42
2023-11-30T19:45:45.725Z,87.44
2023-11-30T19:48:14.396Z,87.42
2023-11-30T19:50:43.785Z,87.49
2023-11-30T19:53:12.270Z,87.66
2023-11-30T19:55:40.785Z,87.55
2023-11-30T19:58:09.350Z,87.66
2023-11-30T20:00:41.165Z,87.70
2023-11-30T20:03:10.054Z,87.68
2023-11-30T20:05:38.724Z,87.71
2023-11-30T20:08:07.150Z,87.58
2023-11-30T20:10:35.379Z,87.81
2023-11-30T20:13:04.002Z,87.81
2023-11-30T20:15:33.231Z,87.88
2023-11-30T20:18:01.573Z,87.76
2023-11-30T20:20:29.831Z,87.59
2023-11-30T20:22:58.724Z,87.57
2023-11-30T20:25:26.746Z,87.47
2023-11-30T20:27:54.947Z,87.60
2023-11-30T20:30:23.306Z,87.70
2023-11-30T20:32:51.478Z,87.72
2023-11-30T20:35:19.528Z,87.55
2023-11-30T20:37:49.032Z,87.70
2023-11-30T20:40:17.233Z,87.88
2023-11-30T20:42:46.489Z,87.78
2023-11-30T20:45:16.031Z,87.55
2023-11-30T20:47:44.469Z,87.54
2023-11-30T20:50:12.581Z,87.69
2023-11-30T20:52:40.575Z,87.89
2023-11-30T20:55:08.911Z,87.94
2023-11-30T20:57:39.401Z,87.92
2023-11-30T21:00:13.062Z,87.86
2023-11-30T21:14:29.702Z,87.84
2023-11-30T21:16:57.968Z,88.17
2023-11-30T21:19:27.001Z,88.21
2023-11-30T21:21:55.283Z,88.13
2023-11-30T21:24:23.497Z,87.73
2023-11-30T21:26:51.979Z,87.69
2023-11-30T21:29:21.257Z,87.67
2023-11-30T21:31:49.324Z,87.82
2023-11-30T21:34:17.459Z,87.76
2023-11-30T21:36:45.669Z,87.60
2023-11-30T21:39:14.877Z,87.62
2023-11-30T21:41:42.966Z,87.55
2023-11-30T21:44:11.238Z,87.38
2023-11-30T21:46:40.481Z,87.41
2023-11-30T21:49:09.909Z,87.42
2023-11-30T21:51:38.139Z,87.55
2023-11-30T21:54:06.334Z,87.72
2023-11-30T21:56:34.677Z,87.59
2023-11-30T21:59:03.140Z,87.83
2023-11-30T22:01:31.476Z,87.64
2023-11-30T22:03:59.919Z,87.78
2023-11-30T22:06:28.127Z,87.66
2023-11-30T22:08:56.457Z,87.82
2023-11-30T22:11:24.563Z,87.75
2023-11-30T22:13:53.197Z,88.00
2023-11-30T22:16:26.483Z,87.87
2023-11-30T22:19:01.367Z,87.79
2023-11-30T22:21:30.532Z,87.66
2023-11-30T22:23:59.153Z,87.87
2023-11-30T22:26:28.700Z,87.92
2023-11-30T22:28:57.207Z,87.88
2023-11-30T22:31:25.399Z,87.54
2023-11-30T22:33:53.578Z,87.49
2023-11-30T22:36:21.836Z,87.58
2023-11-30T22:38:50.046Z,87.50
2023-11-30T22:41:18.207Z,87.64
2023-11-30T22:43:46.320Z,87.68
2023-11-30T22:46:18.584Z,87.42
2023-11-30T22:48:47.605Z,87.25
2023-11-30T22:51:16.154Z,87.47
2023-11-30T22:53:44.460Z,87.63
2023-11-30T22:56:17.718Z,87.32
2023-11-30T22:58:46.964Z,87.39
2023-11-30T23:01:15.331Z,87.37
2023-11-30T23:03:46.914Z,87.36
2023-11-30T23:06:15.328Z,87.45
2023-11-30T23:08:43.825Z,87.44
2023-11-30T23:11:11.995Z,87.28
2023-11-30T23:13:40.684Z,87.17
2023-11-30T23:16:10.159Z,87.41
2023-11-30T23:18:38.688Z,87.62
2023-11-30T23:21:08.679Z,87.33
2023-11-30T23:23:36.927Z,87.29
2023-11-30T23:26:05.558Z,87.42
2023-11-30T23:28:34.024Z,87.50
2023-11-30T23:31:02.201Z,87.53
2023-11-30T23:33:30.384Z,87.90
2023-11-30T23:35:58.512Z,88.06
2023-11-30T23:38:26.674Z,88.33
2023-11-30T23:40:54.780Z,88.25
2023-11-30T23:43:22.934Z,88.25
2023-11-30T23:45:51.454Z,88.47
2023-11-30T23:48:19.575Z,88.54
2023-11-30T23:50:47.690Z,88.43
2023-11-30T23:53:16.445Z,88.15
2023-11-30T23:55:44.565Z,88.16
2023-11-30T23:58:13.005Z,88.30
